Absarokee, Montana
Current Conditions -  °F | °C
As of 5:53 PM on Monday 22 Dec 2014 (Local Time) from KBIL Reporting Station
Broken Clouds Broken Clouds  
Wind Chill: 25°   Ceiling: 18000
Heat Index: 35°   Visibility: 10mi
Dew Point: 21°   Wind: 16mph
Humidity: 57%   Direction: 330°NNW
Pressure: 29.97"   Gusts: NA
Location:  45.53°N, 109.43°W
Report Text: KBIL 230053Z 33014KT 10SM SCT110 BKN180 02/M06 A2997 RMK AO2 SLP172 T00171061
Loading
Personal Weather Stations






























Interactive Weather Map New forecast layout! Learn more

10-Day Weather Forecast

Advertisements
Track Severe Weather on mobile